Laclede, Illinois
Current Conditions -  °F | °C
As of 6:55 AM on Thursday 30 Oct 2014 (Local Time) from K1H2 Reporting Station
NA  
Wind Chill: 33°   Ceiling: NA
Heat Index: 33°   Visibility: NA
Dew Point: 31°   Wind: 0mph
Humidity: 94%   Direction: NA
Pressure: 30.17"   Gusts: NA
Location:  38.891°N, 88.6694°W
Report Text: K1H2 301155Z AUTO 00000KT 00/M01 A3017 RMK AO2 T00031006 10026 20002 PWINO
Loading
Personal Weather Stations






























Interactive Weather Map
Tropical Storm Tracking
New forecast layout! Learn more

10-Day Weather Forecast

Advertisements
Track Severe Weather on mobile